createdAt,value
2018-05-19T00:02:14.832Z,28.50
2018-05-19T00:04:42.292Z,34.13
2018-05-19T00:07:09.760Z,24.67
2018-05-19T00:09:37.233Z,24.37
2018-05-19T00:12:04.692Z,23.30
2018-05-19T00:14:32.256Z,25.83
2018-05-19T00:16:59.719Z,28.43
2018-05-19T00:19:27.197Z,34.73
2018-05-19T00:21:55.443Z,28.40
2018-05-19T00:24:22.903Z,29.70
2018-05-19T00:26:50.368Z,34.17
2018-05-19T00:29:17.921Z,24.33
2018-05-19T00:31:45.388Z,27.57
2018-05-19T00:34:12.862Z,26.60
2018-05-19T00:36:41.084Z,25.43
2018-05-19T00:39:08.556Z,25.83
2018-05-19T00:41:36.024Z,24.87
2018-05-19T00:44:03.521Z,36.40
2018-05-19T00:46:30.993Z,22.43
2018-05-19T00:48:58.457Z,33.37
2018-05-19T00:51:25.920Z,23.30
2018-05-19T00:53:53.396Z,23.63
2018-05-19T00:56:20.969Z,28.80
2018-05-19T00:58:48.461Z,27.43
2018-05-19T01:01:15.920Z,31.70
2018-05-19T01:03:43.380Z,33.60
2018-05-19T01:06:10.892Z,33.87
2018-05-19T01:08:38.452Z,38.30
2018-05-19T01:11:05.928Z,34.37
2018-05-19T01:13:34.155Z,35.77
2018-05-19T01:16:01.620Z,37.80
2018-05-19T01:18:29.091Z,35.10
2018-05-19T01:20:56.569Z,39.17
2018-05-19T01:23:24.024Z,41.63
2018-05-19T01:25:51.488Z,35.87
2018-05-19T01:28:19.716Z,36.47
2018-05-19T01:30:47.188Z,45.93
2018-05-19T01:33:14.656Z,43.63
2018-05-19T01:35:42.124Z,36.07
2018-05-19T01:38:09.587Z,33.10
2018-05-19T01:40:37.811Z,31.57
2018-05-19T01:43:05.278Z,33.53
2018-05-19T01:45:32.768Z,31.30
2018-05-19T01:48:00.224Z,33.03
2018-05-19T01:50:27.701Z,33.13
2018-05-19T01:52:55.937Z,36.03
2018-05-19T01:55:23.395Z,25.80
2018-05-19T01:57:50.864Z,41.07
2018-05-19T02:00:18.325Z,34.23
2018-05-19T02:02:45.877Z,34.23
2018-05-19T02:05:13.436Z,35.93
2018-05-19T02:07:40.954Z,34.20
2018-05-19T02:10:08.453Z,26.80
2018-05-19T02:12:35.913Z,29.23
2018-05-19T02:15:03.463Z,28.83
2018-05-19T02:17:30.933Z,43.93
2018-05-19T02:19:58.388Z,25.07
2018-05-19T02:22:25.856Z,25.43
2018-05-19T02:24:54.080Z,31.80
2018-05-19T02:27:21.545Z,28.77
2018-05-19T02:29:49.009Z,36.70
2018-05-19T02:32:16.517Z,37.80
2018-05-19T02:34:43.991Z,45.83
2018-05-19T02:37:11.454Z,47.23
2018-05-19T02:39:39.447Z,48.13
2018-05-19T02:42:06.917Z,48.00
2018-05-19T02:44:34.373Z,45.43
2018-05-19T02:47:01.839Z,46.17
2018-05-19T02:49:29.384Z,40.27
2018-05-19T02:51:56.763Z,44.87
2018-05-19T02:54:25.000Z,40.90
2018-05-19T02:56:52.482Z,46.80
2018-05-19T02:59:20.761Z,53.17
2018-05-19T03:01:48.316Z,47.73
2018-05-19T03:04:15.784Z,50.73
2018-05-19T03:06:43.256Z,42.50
2018-05-19T03:09:11.481Z,49.23
2018-05-19T03:11:38.968Z,41.97
2018-05-19T03:14:06.433Z,34.53
2018-05-19T03:16:34.657Z,35.40
2018-05-19T03:19:02.113Z,40.23
2018-05-19T03:21:29.588Z,32.87
2018-05-19T03:23:57.044Z,37.10
2018-05-19T03:26:24.504Z,46.40
2018-05-19T03:28:52.005Z,36.00
2018-05-19T03:31:20.249Z,34.30
2018-05-19T03:33:47.697Z,33.60
2018-05-19T03:36:15.156Z,36.03
2018-05-19T03:38:42.629Z,36.00
2018-05-19T03:41:10.090Z,36.13
2018-05-19T03:43:37.544Z,41.27
2018-05-19T03:46:05.017Z,37.77
2018-05-19T03:48:33.241Z,34.93
2018-05-19T03:51:00.712Z,29.03
2018-05-19T03:53:28.171Z,28.03
2018-05-19T03:55:55.644Z,34.53
2018-05-19T03:58:34.852Z,41.20
2018-05-19T04:01:14.171Z,30.63
2018-05-19T04:03:41.636Z,22.07
2018-05-19T04:06:09.115Z,31.87
2018-05-19T04:08:36.565Z,27.67
2018-05-19T04:11:04.042Z,28.87
2018-05-19T04:13:31.504Z,24.93
2018-05-19T04:15:59.724Z,27.07
2018-05-19T04:18:27.201Z,43.13
2018-05-19T04:20:54.647Z,33.23
2018-05-19T04:23:22.133Z,31.40
2018-05-19T04:25:49.601Z,34.77
2018-05-19T04:28:17.065Z,28.83
2018-05-19T04:30:45.300Z,30.93
2018-05-19T04:33:12.748Z,30.40
2018-05-19T04:35:40.216Z,26.97
2018-05-19T04:38:07.672Z,33.03
2018-05-19T04:40:35.154Z,30.83
2018-05-19T04:43:02.613Z,33.20
2018-05-19T04:45:30.071Z,32.80
2018-05-19T04:47:57.540Z,33.43
2018-05-19T04:50:25.824Z,34.73
2018-05-19T04:52:54.133Z,41.83
2018-05-19T04:55:21.524Z,36.73
2018-05-19T04:57:49.215Z,28.60
2018-05-19T05:00:17.464Z,27.87
2018-05-19T05:02:44.931Z,31.83
2018-05-19T05:05:12.397Z,25.00
2018-05-19T05:07:39.932Z,23.30
2018-05-19T05:10:07.409Z,25.27
2018-05-19T05:12:34.869Z,18.83
2018-05-19T05:15:03.130Z,28.07
2018-05-19T05:17:31.400Z,18.37
2018-05-19T05:19:58.872Z,14.37
2018-05-19T05:22:26.357Z,17.17
2018-05-19T05:24:53.812Z,22.20
2018-05-19T05:27:21.265Z,18.60
2018-05-19T05:29:49.493Z,24.73
2018-05-19T05:32:17.351Z,24.30
2018-05-19T05:34:44.826Z,22.90
2018-05-19T05:37:12.300Z,24.33
2018-05-19T05:39:40.538Z,32.33
2018-05-19T05:42:08.013Z,26.40
2018-05-19T05:44:35.472Z,28.70
2018-05-19T05:47:02.933Z,21.53
2018-05-19T05:49:30.412Z,31.33
2018-05-19T05:51:58.638Z,23.13
2018-05-19T05:54:26.110Z,26.10
2018-05-19T05:56:53.622Z,33.03
2018-05-19T05:59:21.817Z,24.10
2018-05-19T06:01:49.300Z,21.73
2018-05-19T06:04:16.820Z,19.60
2018-05-19T06:06:44.288Z,23.73
2018-05-19T06:09:11.760Z,20.63
2018-05-19T06:11:39.225Z,18.60
2018-05-19T06:14:06.700Z,22.00
2018-05-19T06:16:34.992Z,19.03
2018-05-19T06:19:03.221Z,21.67
2018-05-19T06:21:30.697Z,23.77
2018-05-19T06:23:58.158Z,21.80
2018-05-19T06:26:25.629Z,19.90
2018-05-19T06:28:53.100Z,19.30
2018-05-19T06:31:21.342Z,26.93
2018-05-19T06:33:48.804Z,20.50
2018-05-19T06:36:16.291Z,22.50
2018-05-19T06:38:44.522Z,23.10
2018-05-19T06:41:12.002Z,19.93
2018-05-19T06:43:39.464Z,19.47
2018-05-19T06:46:07.709Z,29.77
2018-05-19T06:48:35.179Z,30.57
2018-05-19T06:51:02.637Z,28.60
2018-05-19T06:53:30.120Z,21.13
2018-05-19T06:55:58.361Z,21.43
2018-05-19T06:58:25.852Z,16.07
2018-05-19T07:00:54.096Z,19.80
2018-05-19T07:03:21.553Z,17.67
2018-05-19T07:05:49.018Z,16.10
2018-05-19T07:08:16.513Z,17.33
2018-05-19T07:10:43.978Z,16.27
2018-05-19T07:13:11.445Z,23.33
2018-05-19T07:15:38.955Z,21.57
2018-05-19T07:18:07.192Z,22.33
2018-05-19T07:20:34.650Z,19.37
2018-05-19T07:23:02.141Z,19.47
2018-05-19T07:25:29.599Z,21.33
2018-05-19T07:27:57.056Z,23.70
2018-05-19T07:30:24.511Z,28.97
2018-05-19T07:32:51.974Z,15.77
2018-05-19T07:35:20.212Z,20.30
2018-05-19T07:37:47.672Z,16.97
2018-05-19T07:40:15.134Z,22.07
2018-05-19T07:42:42.648Z,22.43
2018-05-19T07:45:10.100Z,17.00
2018-05-19T07:47:37.577Z,28.17
2018-05-19T07:50:05.039Z,18.10
2018-05-19T07:52:32.501Z,25.60
2018-05-19T07:54:59.972Z,18.73
2018-05-19T07:57:27.437Z,23.40
2018-05-19T07:59:54.888Z,17.03
2018-05-19T08:02:22.355Z,18.20
2018-05-19T08:04:49.820Z,24.20
2018-05-19T08:07:17.289Z,20.00
2018-05-19T08:09:45.513Z,26.03
2018-05-19T08:12:12.965Z,22.57
2018-05-19T08:14:40.440Z,17.10
2018-05-19T08:17:07.904Z,18.70
2018-05-19T08:19:35.360Z,17.67
2018-05-19T08:22:02.816Z,25.37
2018-05-19T08:24:30.288Z,20.53
2018-05-19T08:26:57.759Z,23.67
2018-05-19T08:29:25.214Z,21.27
2018-05-19T08:31:52.687Z,17.40
2018-05-19T08:34:20.908Z,23.00
2018-05-19T08:36:48.375Z,25.97
2018-05-19T08:39:15.852Z,19.57
2018-05-19T08:41:43.312Z,20.57
2018-05-19T08:44:10.785Z,19.00
2018-05-19T08:46:39.021Z,18.53
2018-05-19T08:49:06.478Z,20.50
2018-05-19T08:51:33.960Z,16.40
2018-05-19T08:54:01.426Z,28.57
2018-05-19T08:56:29.653Z,18.60
2018-05-19T08:58:57.124Z,21.13
2018-05-19T09:01:24.601Z,24.97
2018-05-19T09:03:52.216Z,20.70
2018-05-19T09:06:19.684Z,18.93
2018-05-19T09:08:47.144Z,19.60
2018-05-19T09:11:14.612Z,23.60
2018-05-19T09:13:42.081Z,20.63
2018-05-19T09:16:09.549Z,19.43
2018-05-19T09:18:37.005Z,25.27
2018-05-19T09:21:04.464Z,22.80
2018-05-19T09:23:31.925Z,16.13
2018-05-19T09:26:00.167Z,14.63
2018-05-19T09:28:27.625Z,16.70
2018-05-19T09:30:55.099Z,16.63
2018-05-19T09:33:22.569Z,17.37
2018-05-19T09:35:50.126Z,15.70
2018-05-19T09:38:19.168Z,12.40
2018-05-19T09:40:46.629Z,13.13
2018-05-19T09:43:14.090Z,21.63
2018-05-19T09:45:41.556Z,14.87
2018-05-19T09:48:09.017Z,16.13
2018-05-19T09:50:36.499Z,15.93
2018-05-19T09:53:04.024Z,17.47
2018-05-19T09:55:31.425Z,22.50
2018-05-19T09:57:59.668Z,18.53
2018-05-19T10:00:27.129Z,16.90
2018-05-19T10:02:54.598Z,17.33
2018-05-19T10:05:22.056Z,18.73
2018-05-19T10:07:49.513Z,15.97
2018-05-19T10:10:17.872Z,18.20
2018-05-19T10:12:45.333Z,12.97
2018-05-19T10:15:12.800Z,20.53
2018-05-19T10:17:40.256Z,23.53
2018-05-19T10:20:07.717Z,15.63
2018-05-19T10:22:35.184Z,17.10
2018-05-19T10:25:03.409Z,13.20
2018-05-19T10:27:30.867Z,17.17
2018-05-19T10:29:58.327Z,18.23
2018-05-19T10:32:25.811Z,24.23
2018-05-19T10:34:53.284Z,15.10
2018-05-19T10:37:21.518Z,22.30
2018-05-19T10:39:48.968Z,14.53
2018-05-19T10:42:16.473Z,17.87
2018-05-19T10:44:43.961Z,20.23
2018-05-19T10:47:11.436Z,17.90
2018-05-19T10:49:38.916Z,19.37
2018-05-19T10:52:06.373Z,21.10
2018-05-19T10:54:33.836Z,20.77
2018-05-19T10:57:01.300Z,20.67
2018-05-19T10:59:28.765Z,23.50
2018-05-19T11:01:56.301Z,17.97
2018-05-19T11:04:23.688Z,24.10
2018-05-19T11:06:51.938Z,23.23
2018-05-19T11:09:19.409Z,21.67
2018-05-19T11:11:46.878Z,26.03
2018-05-19T11:14:15.100Z,23.50
2018-05-19T11:16:42.564Z,26.93
2018-05-19T11:19:10.117Z,21.47
2018-05-19T11:21:37.575Z,30.27
2018-05-19T11:24:05.145Z,28.83
2018-05-19T11:26:32.649Z,29.10
2018-05-19T11:29:00.930Z,34.33
2018-05-19T11:31:28.439Z,35.53
2018-05-19T11:33:55.909Z,39.53
2018-05-19T11:36:23.373Z,33.03
2018-05-19T11:38:50.855Z,28.17
2018-05-19T11:41:19.072Z,33.50
2018-05-19T11:43:46.545Z,31.80
2018-05-19T11:46:14.021Z,39.93
2018-05-19T11:48:41.481Z,36.30
2018-05-19T11:51:08.956Z,38.50
2018-05-19T11:53:37.185Z,40.83
2018-05-19T11:56:04.645Z,35.37
2018-05-19T11:58:32.100Z,34.57
2018-05-19T12:00:59.576Z,28.43
2018-05-19T12:03:27.044Z,32.63
2018-05-19T12:05:54.512Z,31.63
2018-05-19T12:08:22.743Z,38.13
2018-05-19T12:10:50.207Z,29.93
2018-05-19T12:13:18.431Z,37.57
2018-05-19T12:15:45.911Z,33.03
2018-05-19T12:18:13.368Z,27.90
2018-05-19T12:20:40.852Z,35.60
2018-05-19T12:23:08.324Z,35.60
2018-05-19T12:25:35.780Z,32.47
2018-05-19T12:28:03.260Z,28.67
2018-05-19T12:30:31.501Z,33.23
2018-05-19T12:32:58.952Z,31.30
2018-05-19T12:35:26.420Z,30.83
2018-05-19T12:37:53.884Z,34.10
2018-05-19T12:40:21.354Z,36.23
2018-05-19T12:42:49.590Z,34.87
2018-05-19T12:45:17.049Z,28.93
2018-05-19T12:47:44.516Z,38.20
2018-05-19T12:50:11.968Z,28.90
2018-05-19T12:52:39.425Z,31.50
2018-05-19T12:55:06.891Z,30.10
2018-05-19T12:57:34.367Z,28.43
2018-05-19T13:00:01.816Z,31.13
2018-05-19T13:02:29.280Z,38.50
2018-05-19T13:04:57.508Z,28.20
2018-05-19T13:07:25.000Z,24.27
2018-05-19T13:09:52.453Z,28.30
2018-05-19T13:12:19.914Z,31.73
2018-05-19T13:14:47.385Z,36.03
2018-05-19T13:17:15.604Z,25.10
2018-05-19T13:19:43.824Z,27.93
2018-05-19T13:22:11.293Z,29.33
2018-05-19T13:24:39.520Z,27.77
2018-05-19T13:27:07.781Z,31.10
2018-05-19T13:29:35.289Z,31.87
2018-05-19T13:32:02.741Z,19.57
2018-05-19T13:34:30.205Z,39.87
2018-05-19T13:36:57.793Z,30.10
2018-05-19T13:39:25.224Z,31.63
2018-05-19T13:41:52.689Z,36.77
2018-05-19T13:44:20.915Z,37.13
2018-05-19T13:46:48.421Z,25.60
2018-05-19T13:49:15.863Z,24.80
2018-05-19T13:51:43.316Z,19.40
2018-05-19T13:54:10.872Z,23.90
2018-05-19T13:56:38.329Z,26.13
2018-05-19T13:59:05.891Z,22.40
2018-05-19T14:01:33.341Z,22.83
2018-05-19T14:04:00.804Z,22.03
2018-05-19T14:06:28.259Z,20.37
2018-05-19T14:08:56.483Z,22.53
2018-05-19T14:11:23.987Z,16.47
2018-05-19T14:13:51.444Z,28.00
2018-05-19T14:16:19.117Z,18.33
2018-05-19T14:18:46.580Z,19.20
2018-05-19T14:21:14.841Z,19.23
2018-05-19T14:23:42.312Z,30.73
2018-05-19T14:26:09.788Z,33.67
2018-05-19T14:28:38.349Z,24.67
2018-05-19T14:31:05.816Z,21.40
2018-05-19T14:33:34.045Z,23.30
2018-05-19T14:36:01.525Z,23.93
2018-05-19T14:38:28.988Z,25.97
2018-05-19T14:40:56.455Z,27.57
2018-05-19T14:43:24.692Z,28.67
2018-05-19T14:45:52.152Z,29.73
2018-05-19T14:48:19.627Z,24.03
2018-05-19T14:50:47.102Z,27.93
2018-05-19T14:53:15.342Z,29.23
2018-05-19T14:55:42.812Z,24.50
2018-05-19T14:58:10.388Z,20.20
2018-05-19T15:00:37.840Z,23.27
2018-05-19T15:03:05.310Z,35.77
2018-05-19T15:05:34.072Z,24.63
2018-05-19T15:08:01.545Z,26.17
2018-05-19T15:10:29.093Z,32.53
2018-05-19T15:12:56.552Z,23.30
2018-05-19T15:15:24.022Z,24.17
2018-05-19T15:17:52.279Z,27.80
2018-05-19T15:20:19.754Z,23.67
2018-05-19T15:22:47.981Z,30.13
2018-05-19T15:25:15.481Z,28.00
2018-05-19T15:27:43.036Z,27.00
2018-05-19T15:30:10.500Z,38.80
2018-05-19T15:32:38.050Z,27.03
2018-05-19T15:35:05.520Z,35.97
2018-05-19T15:37:33.746Z,28.57
2018-05-19T15:40:01.373Z,24.87
2018-05-19T15:42:28.806Z,33.97
2018-05-19T15:44:56.357Z,27.60
2018-05-19T15:47:23.817Z,22.83
2018-05-19T15:49:51.272Z,29.70
2018-05-19T15:52:18.743Z,28.40
2018-05-19T15:54:46.973Z,32.47
2018-05-19T15:57:14.456Z,31.13
2018-05-19T15:59:41.916Z,27.43
2018-05-19T16:02:09.395Z,31.83
2018-05-19T16:04:37.629Z,28.47
2018-05-19T16:07:05.104Z,30.40
2018-05-19T16:09:32.662Z,31.13
2018-05-19T16:12:00.114Z,21.80
2018-05-19T16:14:27.675Z,30.37
2018-05-19T16:16:55.153Z,27.63
2018-05-19T16:19:22.608Z,28.67
2018-05-19T16:21:50.843Z,36.43
2018-05-19T16:24:19.136Z,32.77
2018-05-19T16:26:46.696Z,31.27
2018-05-19T16:29:14.256Z,26.63
2018-05-19T16:31:41.713Z,28.33
2018-05-19T16:34:09.228Z,36.07
2018-05-19T16:36:36.744Z,34.50
2018-05-19T16:39:04.184Z,42.07
2018-05-19T16:41:31.657Z,42.40
2018-05-19T16:43:59.121Z,36.27
2018-05-19T16:46:27.389Z,31.63
2018-05-19T16:48:55.607Z,28.90
2018-05-19T16:51:23.088Z,40.03
2018-05-19T16:53:50.547Z,45.73
2018-05-19T16:56:18.025Z,38.83
2018-05-19T16:58:47.112Z,50.60
2018-05-19T17:01:14.577Z,50.03
2018-05-19T17:03:42.028Z,45.13
2018-05-19T17:06:10.404Z,60.33
2018-05-19T17:08:37.869Z,42.77
2018-05-19T17:11:05.316Z,40.00
2018-05-19T17:13:32.803Z,45.07
2018-05-19T17:16:01.054Z,42.67
2018-05-19T17:18:28.504Z,43.60
2018-05-19T17:20:56.079Z,35.60
2018-05-19T17:23:23.532Z,41.43
2018-05-19T17:25:51.009Z,39.73
2018-05-19T17:28:19.256Z,42.60
2018-05-19T17:30:46.820Z,39.50
2018-05-19T17:33:14.345Z,40.13
2018-05-19T17:35:41.813Z,36.50
2018-05-19T17:38:09.292Z,34.60
2018-05-19T17:40:36.840Z,43.17
2018-05-19T17:43:04.413Z,41.93
2018-05-19T17:45:32.640Z,43.57
2018-05-19T17:48:00.121Z,41.37
2018-05-19T17:50:27.597Z,40.10
2018-05-19T17:52:55.976Z,36.30
2018-05-19T17:55:23.432Z,31.50
2018-05-19T17:57:50.914Z,46.17
2018-05-19T18:00:19.261Z,38.10
2018-05-19T18:02:46.896Z,39.53
2018-05-19T18:05:14.377Z,46.57
2018-05-19T18:07:41.959Z,40.47
2018-05-19T18:10:09.404Z,49.77
2018-05-19T18:12:36.861Z,36.77
2018-05-19T18:15:04.404Z,46.47
2018-05-19T18:17:31.876Z,41.77
2018-05-19T18:20:00.346Z,44.30
2018-05-19T18:22:29.328Z,38.20
2018-05-19T18:24:56.788Z,40.73
2018-05-19T18:27:24.257Z,41.00
2018-05-19T18:29:51.784Z,31.23
2018-05-19T18:32:19.969Z,40.43
2018-05-19T18:34:47.448Z,33.87
2018-05-19T18:37:15.675Z,49.03
2018-05-19T18:39:43.465Z,35.70
2018-05-19T18:42:10.922Z,38.07
2018-05-19T18:44:38.410Z,46.17
2018-05-19T18:47:05.957Z,30.50
2018-05-19T18:49:33.518Z,42.17
2018-05-19T18:52:01.071Z,36.30
2018-05-19T18:54:28.537Z,40.93
2018-05-19T18:56:56.001Z,30.77
2018-05-19T18:59:23.481Z,44.63
2018-05-19T19:01:50.944Z,40.83
2018-05-19T19:04:19.189Z,39.07
2018-05-19T19:06:46.735Z,46.40
2018-05-19T19:09:14.296Z,43.17
2018-05-19T19:11:42.533Z,44.53
2018-05-19T19:14:10.054Z,38.90
2018-05-19T19:16:37.591Z,37.00
2018-05-19T19:19:05.061Z,37.10
2018-05-19T19:21:33.288Z,43.37
2018-05-19T19:24:00.754Z,49.20
2018-05-19T19:26:28.236Z,42.00
2018-05-19T19:28:55.691Z,47.30
2018-05-19T19:31:23.228Z,39.50
2018-05-19T19:33:50.689Z,36.60
2018-05-19T19:36:18.155Z,48.30
2018-05-19T19:38:45.616Z,42.67
2018-05-19T19:41:13.077Z,55.53
2018-05-19T19:43:40.561Z,47.63
2018-05-19T19:46:08.789Z,43.57
2018-05-19T19:48:36.244Z,48.63
2018-05-19T19:51:03.716Z,37.97
2018-05-19T19:53:31.192Z,58.20
2018-05-19T19:55:59.454Z,43.53
2018-05-19T19:58:26.900Z,53.47
2018-05-19T20:00:54.365Z,50.40
2018-05-19T20:03:21.833Z,47.67
2018-05-19T20:05:49.296Z,51.83
2018-05-19T20:08:18.297Z,53.07
2018-05-19T20:10:46.531Z,55.97
2018-05-19T20:13:14.002Z,47.80
2018-05-19T20:15:41.461Z,43.10
2018-05-19T20:18:08.929Z,46.90
2018-05-19T20:20:36.387Z,43.33
2018-05-19T20:23:04.633Z,46.00
2018-05-19T20:25:32.098Z,52.50
2018-05-19T20:28:00.316Z,52.47
2018-05-19T20:30:27.897Z,49.27
2018-05-19T20:32:55.355Z,41.20
2018-05-19T20:35:22.815Z,51.10
2018-05-19T20:37:50.294Z,50.77
2018-05-19T20:40:18.115Z,41.20
2018-05-19T20:42:45.576Z,45.00
2018-05-19T20:45:13.049Z,42.73
2018-05-19T20:47:40.520Z,52.40
2018-05-19T20:50:07.982Z,40.10
2018-05-19T20:52:35.525Z,47.07
2018-05-19T20:55:02.925Z,44.17
2018-05-19T20:57:30.397Z,43.27
2018-05-19T20:59:58.629Z,46.17
2018-05-19T21:02:26.110Z,49.50
2018-05-19T21:04:53.828Z,53.93
2018-05-19T21:07:21.296Z,43.53
2018-05-19T21:09:48.764Z,54.43
2018-05-19T21:12:16.277Z,54.23
2018-05-19T21:14:44.498Z,52.63
2018-05-19T21:17:11.965Z,55.33
2018-05-19T21:19:39.428Z,45.13
2018-05-19T21:22:06.880Z,41.33
2018-05-19T21:24:34.365Z,43.50
2018-05-19T21:27:02.611Z,41.83
2018-05-19T21:29:30.071Z,44.50
2018-05-19T21:31:57.540Z,46.87
2018-05-19T21:34:25.784Z,53.13
2018-05-19T21:36:53.256Z,43.90
2018-05-19T21:39:20.720Z,45.43
2018-05-19T21:41:48.182Z,47.93
2018-05-19T21:44:15.658Z,54.10
2018-05-19T21:46:43.889Z,50.30
2018-05-19T21:49:11.373Z,45.23
2018-05-19T21:51:38.824Z,55.43
2018-05-19T21:54:06.300Z,46.63
2018-05-19T21:56:34.532Z,59.57
2018-05-19T21:59:01.991Z,46.40
2018-05-19T22:01:29.472Z,46.37
2018-05-19T22:03:56.921Z,50.50
2018-05-19T22:06:24.380Z,46.33
2018-05-19T22:08:51.919Z,51.67
2018-05-19T22:11:19.308Z,50.57
2018-05-19T22:13:47.524Z,50.60
2018-05-19T22:16:15.002Z,41.97
2018-05-19T22:18:42.464Z,56.67
2018-05-19T22:21:09.925Z,48.17
2018-05-19T22:23:37.401Z,47.17
2018-05-19T22:26:04.864Z,57.30
2018-05-19T22:28:32.329Z,63.80
2018-05-19T22:31:00.565Z,53.43
2018-05-19T22:33:28.042Z,43.93
2018-05-19T22:35:55.504Z,55.27
2018-05-19T22:38:22.977Z,45.80
2018-05-19T22:40:51.212Z,51.93
2018-05-19T22:43:18.673Z,54.60
2018-05-19T22:45:46.146Z,63.20
2018-05-19T22:48:13.596Z,53.53
2018-05-19T22:50:41.065Z,53.60
2018-05-19T22:53:08.529Z,59.87
2018-05-19T22:55:36.749Z,51.17
2018-05-19T22:58:04.230Z,54.40
2018-05-19T23:00:31.684Z,52.53
2018-05-19T23:02:59.159Z,60.10
2018-05-19T23:05:26.652Z,60.87
2018-05-19T23:07:54.112Z,60.80
2018-05-19T23:10:21.588Z,62.27
2018-05-19T23:12:49.096Z,56.53
2018-05-19T23:15:16.572Z,49.50
2018-05-19T23:17:44.799Z,59.33
2018-05-19T23:20:12.281Z,58.23
2018-05-19T23:22:43.360Z,55.67
2018-05-19T23:25:10.832Z,60.30
2018-05-19T23:27:38.288Z,59.03
2018-05-19T23:30:05.750Z,54.33
2018-05-19T23:32:33.224Z,58.90
2018-05-19T23:35:00.758Z,69.53
2018-05-19T23:37:28.221Z,64.63
2018-05-19T23:39:55.673Z,57.33
2018-05-19T23:42:23.142Z,61.73
2018-05-19T23:44:50.605Z,50.00
2018-05-19T23:47:18.758Z,56.13
2018-05-19T23:49:46.228Z,56.67
2018-05-19T23:52:13.721Z,55.70
2018-05-19T23:54:41.187Z,65.17
2018-05-19T23:57:09.404Z,64.57
2018-05-19T23:59:36.879Z,82.27
